CTSO2: Bird Creek At Catoosa

                                SHEF ID:       CTSO2     Bird Ck at State Highway 266 nea
STATION TYPE:
Regulating: Stage = 26.00, Flow = 20953

STAGE STAGE(2) RIV-FLOW WTR-TEMP DIS-OXY PH CONDUCT BAT-LOAD
ft ft cfs F mg/l su umho/cm volt
Ccp-Rev Ccp-Rev Ccp-Rev Ccp-Rev Ccp-Rev Ccp-Rev Ccp-Rev Ccp-Rev
(America/Chicago)
05/02 00:00 4.75 3.42 338 68.36 8.78 7.97 406 11.97
05/02 01:00 4.72 3.42 328 68.05 8.70 7.97 407 11.98
05/02 02:00 4.72 3.42 328 67.75 8.50 7.96 406 11.91
05/02 03:00 4.69 3.43 318 67.39 8.51 7.95 405 11.91
05/02 04:00 4.64 3.42 303 67.01 8.42 7.92 398 11.91
05/02 05:00 4.66 3.42 309 66.69 8.38 7.91 396 12.09
05/02 06:00 4.63 3.42 299 66.38 8.34 7.99 396 11.97
05/02 07:00 4.62 3.42 296 66.34 8.41 7.98 399 11.88
05/02 08:00 4.62 3.42 296 66.52 8.39 7.92 398 12.88
05/02 09:00 4.60 3.42 290 66.72 8.50 7.91 397 13.09
05/02 10:00 4.64 3.42 303 67.06 8.59 7.91 395 12.93
05/02 11:00 4.65 3.42 306 67.24 8.68 7.90 388 12.96
05/02 12:00 4.69 3.42 318 67.64 8.80 7.93 379 12.83
05/02 13:00 4.72 3.42 328 68.14 8.79 7.97 375 12.98
05/02 14:00 4.78 3.42 349 68.47 9.00 8.00 372 12.91
05/02 15:00 4.77 3.42 345 68.86 9.25 8.05 371 12.82
05/02 16:00 4.79 3.42 352 69.21 9.22 8.06 379 12.67
05/02 17:00 4.79 3.42 352 69.40 9.36 8.08 383 12.70
05/02 18:00 4.81 3.42 359 69.58 9.48 8.09 390 12.60
05/02 19:00 4.80 3.42 356 69.78 9.45 8.11 393 12.70
05/02 20:00 4.81 3.42 359 69.84 9.45 8.05 393 12.48
05/02 21:00 4.82 3.42 363 69.91 9.51 8.09 394 12.44
05/02 22:00 4.82 3.42 363 69.94 9.43 8.09 392 12.37
05/02 23:00 ---- ---- ---- ---- ---- ---- ---- ----
Data processed at Sun 03May2026 04:21 GMT

NOTICE: If you are parsing this page

Please convert to using our Data API. Starting early 2026 we will be migrating to: https://water.usace.army.mil with modern pages rendered in JavaScript. When this migration completes you will no longer be able to scrape this page! CWMSDataAPI (CDA)

Timeseries IDs (TSIDs)

TSIDs used from left to right in the data table
CATB.Stage.Inst.1Hour.0.Ccp-Rev
CATB.Stage-Alt.Inst.1Hour.0.Ccp-Rev
CATB.Flow.Inst.1Hour.0.Ccp-Rev
CATB.Temp-Water.Inst.1Hour.0.Ccp-Rev
CATB.Conc-DO.Inst.1Hour.0.Ccp-Rev
CATB.pH.Inst.1Hour.0.Ccp-Rev
CATB.Cond-Water.Inst.1Hour.0.Ccp-Rev
CATB.Volt-Battery Load.Inst.1Hour.0.Ccp-Rev

                            

All information presented herein is the property of the government of the United States of America and may be revised or deleted at any time without prior notice. Dissemination of this information without the expressed written consent of the Public Affairs Office, Tulsa District U.S. Army Corps of Engineers is strictly prohibited. These data are gathered electronically and, as presented, have NOT undergone any form of quality control. These data are NOT guaranteed to be valid or correct.